sensor_id;sensor_type;location;lat;lon;timestamp;temperature;humidity
48589;DHT22;34369;51.174;6.738;2023-01-25T00:01:23;1.70;61.10
48589;DHT22;34369;51.174;6.738;2023-01-25T00:03:57;1.60;61.00
48589;DHT22;34369;51.174;6.738;2023-01-25T00:06:29;1.60;61.20
48589;DHT22;34369;51.174;6.738;2023-01-25T00:09:01;1.60;61.20
48589;DHT22;34369;51.174;6.738;2023-01-25T00:11:33;1.60;61.20
48589;DHT22;34369;51.174;6.738;2023-01-25T00:14:05;1.60;61.20
48589;DHT22;34369;51.174;6.738;2023-01-25T00:16:38;1.60;61.30
48589;DHT22;34369;51.174;6.738;2023-01-25T00:19:11;1.60;61.30
48589;DHT22;34369;51.174;6.738;2023-01-25T00:21:43;1.60;61.30
48589;DHT22;34369;51.174;6.738;2023-01-25T00:24:15;1.70;61.30
48589;DHT22;34369;51.174;6.738;2023-01-25T00:26:47;1.70;61.40
48589;DHT22;34369;51.174;6.738;2023-01-25T00:29:19;1.70;61.50
48589;DHT22;34369;51.174;6.738;2023-01-25T00:32:01;1.70;61.40
48589;DHT22;34369;51.174;6.738;2023-01-25T00:34:47;1.70;61.40
48589;DHT22;34369;51.174;6.738;2023-01-25T00:37:24;1.70;61.30
48589;DHT22;34369;51.174;6.738;2023-01-25T00:40:00;1.70;61.40
48589;DHT22;34369;51.174;6.738;2023-01-25T00:42:32;1.70;61.40
48589;DHT22;34369;51.174;6.738;2023-01-25T00:45:05;1.70;61.40
48589;DHT22;34369;51.174;6.738;2023-01-25T00:47:38;1.70;61.40
48589;DHT22;34369;51.174;6.738;2023-01-25T00:50:11;1.60;61.40
48589;DHT22;34369;51.174;6.738;2023-01-25T00:52:43;1.60;61.50
48589;DHT22;34369;51.174;6.738;2023-01-25T00:55:15;1.60;61.50
48589;DHT22;34369;51.174;6.738;2023-01-25T00:57:47;1.60;61.50
48589;DHT22;34369;51.174;6.738;2023-01-25T01:00:19;1.60;61.50
48589;DHT22;34369;51.174;6.738;2023-01-25T01:02:51;1.60;61.40
48589;DHT22;34369;51.174;6.738;2023-01-25T01:05:24;1.60;61.70
48589;DHT22;34369;51.174;6.738;2023-01-25T01:07:56;1.60;61.70
48589;DHT22;34369;51.174;6.738;2023-01-25T01:10:29;1.60;61.60
48589;DHT22;34369;51.174;6.738;2023-01-25T01:13:01;1.60;61.70
48589;DHT22;34369;51.174;6.738;2023-01-25T01:15:35;1.60;61.70
48589;DHT22;34369;51.174;6.738;2023-01-25T01:18:07;1.60;61.90
48589;DHT22;34369;51.174;6.738;2023-01-25T01:20:40;1.60;62.00
48589;DHT22;34369;51.174;6.738;2023-01-25T01:23:19;1.60;61.90
48589;DHT22;34369;51.174;6.738;2023-01-25T01:25:51;1.60;62.00
48589;DHT22;34369;51.174;6.738;2023-01-25T01:28:23;1.60;62.00
48589;DHT22;34369;51.174;6.738;2023-01-25T01:30:59;1.60;62.00
48589;DHT22;34369;51.174;6.738;2023-01-25T01:33:30;1.60;62.00
48589;DHT22;34369;51.174;6.738;2023-01-25T01:36:08;1.60;62.00
48589;DHT22;34369;51.174;6.738;2023-01-25T01:38:40;1.60;62.10
48589;DHT22;34369;51.174;6.738;2023-01-25T01:41:14;1.60;62.10
48589;DHT22;34369;51.174;6.738;2023-01-25T01:43:46;1.60;62.10
48589;DHT22;34369;51.174;6.738;2023-01-25T01:46:24;1.60;62.10
48589;DHT22;34369;51.174;6.738;2023-01-25T01:49:00;1.60;62.20
48589;DHT22;34369;51.174;6.738;2023-01-25T01:51:41;1.60;62.10
48589;DHT22;34369;51.174;6.738;2023-01-25T01:54:19;1.60;62.20
48589;DHT22;34369;51.174;6.738;2023-01-25T01:56:56;1.60;62.30
48589;DHT22;34369;51.174;6.738;2023-01-25T01:59:34;1.60;62.30
48589;DHT22;34369;51.174;6.738;2023-01-25T02:02:08;1.60;62.30
48589;DHT22;34369;51.174;6.738;2023-01-25T02:04:40;1.60;62.30
48589;DHT22;34369;51.174;6.738;2023-01-25T02:07:22;1.50;62.30
48589;DHT22;34369;51.174;6.738;2023-01-25T02:09:58;1.60;62.40
48589;DHT22;34369;51.174;6.738;2023-01-25T02:12:31;1.50;62.30
48589;DHT22;34369;51.174;6.738;2023-01-25T02:15:03;1.60;62.40
48589;DHT22;34369;51.174;6.738;2023-01-25T02:17:38;1.60;62.40
48589;DHT22;34369;51.174;6.738;2023-01-25T02:20:20;1.60;62.50
48589;DHT22;34369;51.174;6.738;2023-01-25T02:22:59;1.60;62.50
48589;DHT22;34369;51.174;6.738;2023-01-25T02:25:35;1.60;62.50
48589;DHT22;34369;51.174;6.738;2023-01-25T02:28:12;1.60;62.40
48589;DHT22;34369;51.174;6.738;2023-01-25T02:30:46;1.60;62.40
48589;DHT22;34369;51.174;6.738;2023-01-25T02:33:21;1.60;62.50
48589;DHT22;34369;51.174;6.738;2023-01-25T02:35:59;1.60;62.50
48589;DHT22;34369;51.174;6.738;2023-01-25T02:38:35;1.60;62.70
48589;DHT22;34369;51.174;6.738;2023-01-25T02:41:14;1.60;62.70
48589;DHT22;34369;51.174;6.738;2023-01-25T02:43:48;1.60;62.60
48589;DHT22;34369;51.174;6.738;2023-01-25T02:46:23;1.60;62.50
48589;DHT22;34369;51.174;6.738;2023-01-25T02:48:58;1.60;62.50
48589;DHT22;34369;51.174;6.738;2023-01-25T02:51:32;1.60;62.60
48589;DHT22;34369;51.174;6.738;2023-01-25T02:54:07;1.60;62.60
48589;DHT22;34369;51.174;6.738;2023-01-25T02:56:41;1.60;62.70
48589;DHT22;34369;51.174;6.738;2023-01-25T02:59:14;1.60;62.60
48589;DHT22;34369;51.174;6.738;2023-01-25T03:01:46;1.60;62.70
48589;DHT22;34369;51.174;6.738;2023-01-25T03:04:17;1.60;62.80
48589;DHT22;34369;51.174;6.738;2023-01-25T03:06:49;1.60;62.80
48589;DHT22;34369;51.174;6.738;2023-01-25T03:09:22;1.50;62.80
48589;DHT22;34369;51.174;6.738;2023-01-25T03:11:55;1.50;62.90
48589;DHT22;34369;51.174;6.738;2023-01-25T03:14:27;1.50;62.90
48589;DHT22;34369;51.174;6.738;2023-01-25T03:16:59;1.50;63.00
48589;DHT22;34369;51.174;6.738;2023-01-25T03:19:31;1.50;62.90
48589;DHT22;34369;51.174;6.738;2023-01-25T03:22:03;1.60;62.90
48589;DHT22;34369;51.174;6.738;2023-01-25T03:24:36;1.60;63.00
48589;DHT22;34369;51.174;6.738;2023-01-25T03:27:09;1.60;62.90
48589;DHT22;34369;51.174;6.738;2023-01-25T03:29:44;1.60;63.00
48589;DHT22;34369;51.174;6.738;2023-01-25T03:32:16;1.60;63.00
48589;DHT22;34369;51.174;6.738;2023-01-25T03:34:48;1.60;62.90
48589;DHT22;34369;51.174;6.738;2023-01-25T03:37:20;1.60;63.00
48589;DHT22;34369;51.174;6.738;2023-01-25T03:39:52;1.60;62.90
48589;DHT22;34369;51.174;6.738;2023-01-25T03:42:25;1.60;62.90
48589;DHT22;34369;51.174;6.738;2023-01-25T03:44:57;1.60;63.00
48589;DHT22;34369;51.174;6.738;2023-01-25T03:47:29;1.60;63.00
48589;DHT22;34369;51.174;6.738;2023-01-25T03:50:01;1.60;63.00
48589;DHT22;34369;51.174;6.738;2023-01-25T03:52:33;1.60;63.00
48589;DHT22;34369;51.174;6.738;2023-01-25T03:55:08;1.60;63.00
48589;DHT22;34369;51.174;6.738;2023-01-25T03:57:41;1.60;62.90
48589;DHT22;34369;51.174;6.738;2023-01-25T04:00:15;1.60;63.00
48589;DHT22;34369;51.174;6.738;2023-01-25T04:02:47;1.60;63.00
48589;DHT22;34369;51.174;6.738;2023-01-25T04:05:19;1.60;63.00
48589;DHT22;34369;51.174;6.738;2023-01-25T04:07:51;1.50;63.10
48589;DHT22;34369;51.174;6.738;2023-01-25T04:10:23;1.50;63.20
48589;DHT22;34369;51.174;6.738;2023-01-25T04:12:56;1.50;63.20
48589;DHT22;34369;51.174;6.738;2023-01-25T04:15:28;1.50;63.20
48589;DHT22;34369;51.174;6.738;2023-01-25T04:18:00;1.50;63.30
48589;DHT22;34369;51.174;6.738;2023-01-25T04:20:32;1.50;63.30
48589;DHT22;34369;51.174;6.738;2023-01-25T04:23:04;1.50;63.40
48589;DHT22;34369;51.174;6.738;2023-01-25T04:25:37;1.50;63.50
48589;DHT22;34369;51.174;6.738;2023-01-25T04:28:11;1.50;63.40
48589;DHT22;34369;51.174;6.738;2023-01-25T04:30:43;1.50;63.40
48589;DHT22;34369;51.174;6.738;2023-01-25T04:33:15;1.50;63.40
48589;DHT22;34369;51.174;6.738;2023-01-25T04:35:47;1.50;63.30
48589;DHT22;34369;51.174;6.738;2023-01-25T04:38:19;1.50;63.30
48589;DHT22;34369;51.174;6.738;2023-01-25T04:40:51;1.50;63.30
48589;DHT22;34369;51.174;6.738;2023-01-25T04:43:25;1.50;63.40
48589;DHT22;34369;51.174;6.738;2023-01-25T04:45:56;1.50;63.50
48589;DHT22;34369;51.174;6.738;2023-01-25T04:48:28;1.50;63.40
48589;DHT22;34369;51.174;6.738;2023-01-25T04:51:00;1.50;63.40
48589;DHT22;34369;51.174;6.738;2023-01-25T04:53:32;1.50;63.50
48589;DHT22;34369;51.174;6.738;2023-01-25T04:56:05;1.50;63.60
48589;DHT22;34369;51.174;6.738;2023-01-25T04:58:39;1.50;63.60
48589;DHT22;34369;51.174;6.738;2023-01-25T05:01:11;1.50;63.60
48589;DHT22;34369;51.174;6.738;2023-01-25T05:03:43;1.50;63.60
48589;DHT22;34369;51.174;6.738;2023-01-25T05:06:15;1.50;63.70
48589;DHT22;34369;51.174;6.738;2023-01-25T05:08:46;1.50;63.80
48589;DHT22;34369;51.174;6.738;2023-01-25T05:11:18;1.50;63.70
48589;DHT22;34369;51.174;6.738;2023-01-25T05:13:52;1.50;63.70
48589;DHT22;34369;51.174;6.738;2023-01-25T05:16:24;1.60;63.80
48589;DHT22;34369;51.174;6.738;2023-01-25T05:18:56;1.60;63.70
48589;DHT22;34369;51.174;6.738;2023-01-25T05:21:28;1.60;63.80
48589;DHT22;34369;51.174;6.738;2023-01-25T05:24:17;1.50;63.80
48589;DHT22;34369;51.174;6.738;2023-01-25T05:26:49;1.50;63.80
48589;DHT22;34369;51.174;6.738;2023-01-25T05:29:36;1.50;63.90
48589;DHT22;34369;51.174;6.738;2023-01-25T05:32:10;1.50;63.90
48589;DHT22;34369;51.174;6.738;2023-01-25T05:34:43;1.40;64.00
48589;DHT22;34369;51.174;6.738;2023-01-25T05:37:17;1.50;64.10
48589;DHT22;34369;51.174;6.738;2023-01-25T05:39:50;1.40;64.00
48589;DHT22;34369;51.174;6.738;2023-01-25T05:42:22;1.40;64.00
48589;DHT22;34369;51.174;6.738;2023-01-25T05:44:56;1.40;64.20
48589;DHT22;34369;51.174;6.738;2023-01-25T05:47:28;1.40;64.30
48589;DHT22;34369;51.174;6.738;2023-01-25T05:50:00;1.40;64.20
48589;DHT22;34369;51.174;6.738;2023-01-25T05:52:31;1.40;64.20
48589;DHT22;34369;51.174;6.738;2023-01-25T05:55:04;1.40;64.30
48589;DHT22;34369;51.174;6.738;2023-01-25T05:57:36;1.40;64.30
48589;DHT22;34369;51.174;6.738;2023-01-25T06:00:11;1.40;64.40
48589;DHT22;34369;51.174;6.738;2023-01-25T06:02:43;1.40;64.40
48589;DHT22;34369;51.174;6.738;2023-01-25T06:05:15;1.40;64.40
48589;DHT22;34369;51.174;6.738;2023-01-25T06:07:47;1.40;64.40
48589;DHT22;34369;51.174;6.738;2023-01-25T06:10:19;1.40;64.50
48589;DHT22;34369;51.174;6.738;2023-01-25T06:12:57;1.40;64.60
48589;DHT22;34369;51.174;6.738;2023-01-25T06:15:31;1.40;64.70
48589;DHT22;34369;51.174;6.738;2023-01-25T06:18:03;1.40;64.70
48589;DHT22;34369;51.174;6.738;2023-01-25T06:20:35;1.40;64.70
48589;DHT22;34369;51.174;6.738;2023-01-25T06:23:07;1.30;64.80
48589;DHT22;34369;51.174;6.738;2023-01-25T06:25:39;1.40;64.90
48589;DHT22;34369;51.174;6.738;2023-01-25T06:28:11;1.40;65.00
48589;DHT22;34369;51.174;6.738;2023-01-25T06:30:44;1.40;64.90
48589;DHT22;34369;51.174;6.738;2023-01-25T06:33:16;1.40;65.00
48589;DHT22;34369;51.174;6.738;2023-01-25T06:35:48;1.40;65.00
48589;DHT22;34369;51.174;6.738;2023-01-25T06:38:21;1.40;65.00
48589;DHT22;34369;51.174;6.738;2023-01-25T06:40:57;1.40;65.10
48589;DHT22;34369;51.174;6.738;2023-01-25T06:43:30;1.40;65.00
48589;DHT22;34369;51.174;6.738;2023-01-25T06:46:05;1.30;65.00
48589;DHT22;34369;51.174;6.738;2023-01-25T06:48:40;1.30;65.00
48589;DHT22;34369;51.174;6.738;2023-01-25T06:51:13;1.40;64.90
48589;DHT22;34369;51.174;6.738;2023-01-25T06:53:45;1.40;64.80
48589;DHT22;34369;51.174;6.738;2023-01-25T06:56:20;1.40;65.00
48589;DHT22;34369;51.174;6.738;2023-01-25T06:58:53;1.40;65.00
48589;DHT22;34369;51.174;6.738;2023-01-25T07:01:26;1.40;65.00
48589;DHT22;34369;51.174;6.738;2023-01-25T07:03:59;1.40;65.20
48589;DHT22;34369;51.174;6.738;2023-01-25T07:06:32;1.40;65.10
48589;DHT22;34369;51.174;6.738;2023-01-25T07:09:06;1.40;65.20
48589;DHT22;34369;51.174;6.738;2023-01-25T07:11:39;1.40;65.20
48589;DHT22;34369;51.174;6.738;2023-01-25T07:14:11;1.40;65.00
48589;DHT22;34369;51.174;6.738;2023-01-25T07:16:45;1.40;65.10
48589;DHT22;34369;51.174;6.738;2023-01-25T07:19:17;1.40;65.30
48589;DHT22;34369;51.174;6.738;2023-01-25T07:21:50;1.40;65.10
48589;DHT22;34369;51.174;6.738;2023-01-25T07:24:22;1.40;65.30
48589;DHT22;34369;51.174;6.738;2023-01-25T07:26:56;1.40;65.30
48589;DHT22;34369;51.174;6.738;2023-01-25T07:29:28;1.30;65.30
48589;DHT22;34369;51.174;6.738;2023-01-25T07:32:02;1.30;65.30
48589;DHT22;34369;51.174;6.738;2023-01-25T07:34:36;1.30;65.30
48589;DHT22;34369;51.174;6.738;2023-01-25T07:37:08;1.30;65.20
48589;DHT22;34369;51.174;6.738;2023-01-25T07:39:41;1.30;65.30
48589;DHT22;34369;51.174;6.738;2023-01-25T07:42:17;1.30;65.30
48589;DHT22;34369;51.174;6.738;2023-01-25T07:44:49;1.30;65.60
48589;DHT22;34369;51.174;6.738;2023-01-25T07:47:23;1.30;65.20
48589;DHT22;34369;51.174;6.738;2023-01-25T07:49:55;1.20;65.20
48589;DHT22;34369;51.174;6.738;2023-01-25T07:52:27;1.20;65.10
48589;DHT22;34369;51.174;6.738;2023-01-25T07:54:59;1.20;65.40
48589;DHT22;34369;51.174;6.738;2023-01-25T07:57:31;1.20;65.50
48589;DHT22;34369;51.174;6.738;2023-01-25T08:00:04;1.20;65.70
48589;DHT22;34369;51.174;6.738;2023-01-25T08:02:40;1.20;65.60
48589;DHT22;34369;51.174;6.738;2023-01-25T08:05:13;1.20;65.50
48589;DHT22;34369;51.174;6.738;2023-01-25T08:07:45;1.20;65.50
48589;DHT22;34369;51.174;6.738;2023-01-25T08:10:18;1.20;65.50
48589;DHT22;34369;51.174;6.738;2023-01-25T08:12:50;1.20;65.50
48589;DHT22;34369;51.174;6.738;2023-01-25T08:15:22;1.20;65.50
48589;DHT22;34369;51.174;6.738;2023-01-25T08:17:58;1.20;65.40
48589;DHT22;34369;51.174;6.738;2023-01-25T08:20:30;1.20;65.70
48589;DHT22;34369;51.174;6.738;2023-01-25T08:23:02;1.20;65.70
48589;DHT22;34369;51.174;6.738;2023-01-25T08:25:34;1.20;65.70
48589;DHT22;34369;51.174;6.738;2023-01-25T08:28:06;1.20;65.80
48589;DHT22;34369;51.174;6.738;2023-01-25T08:30:38;1.20;65.60
48589;DHT22;34369;51.174;6.738;2023-01-25T08:33:12;1.20;65.80
48589;DHT22;34369;51.174;6.738;2023-01-25T08:35:53;1.20;65.70
48589;DHT22;34369;51.174;6.738;2023-01-25T08:38:26;1.20;65.90
48589;DHT22;34369;51.174;6.738;2023-01-25T08:41:03;1.20;65.80
48589;DHT22;34369;51.174;6.738;2023-01-25T08:43:37;1.20;66.00
48589;DHT22;34369;51.174;6.738;2023-01-25T08:46:10;1.20;65.90
48589;DHT22;34369;51.174;6.738;2023-01-25T08:48:44;1.20;66.00
48589;DHT22;34369;51.174;6.738;2023-01-25T08:51:16;1.20;66.00
48589;DHT22;34369;51.174;6.738;2023-01-25T08:53:49;1.20;65.80
48589;DHT22;34369;51.174;6.738;2023-01-25T08:56:21;1.20;65.90
48589;DHT22;34369;51.174;6.738;2023-01-25T08:58:53;1.20;65.80
48589;DHT22;34369;51.174;6.738;2023-01-25T09:01:25;1.20;66.00
48589;DHT22;34369;51.174;6.738;2023-01-25T09:03:59;1.20;66.00
48589;DHT22;34369;51.174;6.738;2023-01-25T09:06:32;1.20;66.20
48589;DHT22;34369;51.174;6.738;2023-01-25T09:09:04;1.20;66.00
48589;DHT22;34369;51.174;6.738;2023-01-25T09:11:37;1.20;66.00
48589;DHT22;34369;51.174;6.738;2023-01-25T09:14:11;1.20;66.00
48589;DHT22;34369;51.174;6.738;2023-01-25T09:16:43;1.20;66.00
48589;DHT22;34369;51.174;6.738;2023-01-25T09:19:17;1.20;66.00
48589;DHT22;34369;51.174;6.738;2023-01-25T09:21:49;1.20;66.00
48589;DHT22;34369;51.174;6.738;2023-01-25T09:24:22;1.10;66.10
48589;DHT22;34369;51.174;6.738;2023-01-25T09:26:55;1.20;66.10
48589;DHT22;34369;51.174;6.738;2023-01-25T09:29:27;1.10;66.20
48589;DHT22;34369;51.174;6.738;2023-01-25T09:32:00;1.10;66.00
48589;DHT22;34369;51.174;6.738;2023-01-25T09:34:35;1.10;66.20
48589;DHT22;34369;51.174;6.738;2023-01-25T09:37:08;1.10;66.20
48589;DHT22;34369;51.174;6.738;2023-01-25T09:39:40;1.10;66.30
48589;DHT22;34369;51.174;6.738;2023-01-25T09:42:33;1.10;66.20
48589;DHT22;34369;51.174;6.738;2023-01-25T09:45:29;1.10;66.50
48589;DHT22;34369;51.174;6.738;2023-01-25T09:48:09;1.10;66.60
48589;DHT22;34369;51.174;6.738;2023-01-25T09:51:02;1.10;66.50
48589;DHT22;34369;51.174;6.738;2023-01-25T09:53:47;1.10;66.50
48589;DHT22;34369;51.174;6.738;2023-01-25T09:56:24;1.10;66.30
48589;DHT22;34369;51.174;6.738;2023-01-25T09:59:03;1.10;66.30
48589;DHT22;34369;51.174;6.738;2023-01-25T10:01:42;1.10;66.40
48589;DHT22;34369;51.174;6.738;2023-01-25T10:04:20;1.10;66.50
48589;DHT22;34369;51.174;6.738;2023-01-25T10:06:57;1.10;66.50
48589;DHT22;34369;51.174;6.738;2023-01-25T10:09:39;1.10;66.40
48589;DHT22;34369;51.174;6.738;2023-01-25T10:12:18;1.10;66.50
48589;DHT22;34369;51.174;6.738;2023-01-25T10:14:53;1.20;66.50
48589;DHT22;34369;51.174;6.738;2023-01-25T10:17:30;1.10;66.50
48589;DHT22;34369;51.174;6.738;2023-01-25T10:20:16;1.20;66.60
48589;DHT22;34369;51.174;6.738;2023-01-25T10:23:05;1.20;66.70
48589;DHT22;34369;51.174;6.738;2023-01-25T10:25:53;1.20;66.60
48589;DHT22;34369;51.174;6.738;2023-01-25T10:28:38;1.20;66.60
48589;DHT22;34369;51.174;6.738;2023-01-25T10:31:16;1.20;66.60
48589;DHT22;34369;51.174;6.738;2023-01-25T10:33:51;1.20;66.60
48589;DHT22;34369;51.174;6.738;2023-01-25T10:36:28;1.20;66.50
48589;DHT22;34369;51.174;6.738;2023-01-25T10:39:03;1.20;66.50
48589;DHT22;34369;51.174;6.738;2023-01-25T10:41:39;1.20;66.50
48589;DHT22;34369;51.174;6.738;2023-01-25T10:44:13;1.20;66.60
48589;DHT22;34369;51.174;6.738;2023-01-25T10:46:58;1.20;66.60
48589;DHT22;34369;51.174;6.738;2023-01-25T10:49:40;1.30;66.60
48589;DHT22;34369;51.174;6.738;2023-01-25T10:52:19;1.30;66.50
48589;DHT22;34369;51.174;6.738;2023-01-25T10:55:10;1.30;66.50
48589;DHT22;34369;51.174;6.738;2023-01-25T10:57:49;1.20;66.70
48589;DHT22;34369;51.174;6.738;2023-01-25T11:00:25;1.30;66.60
48589;DHT22;34369;51.174;6.738;2023-01-25T11:02:59;1.20;66.50
48589;DHT22;34369;51.174;6.738;2023-01-25T11:05:33;1.30;66.60
48589;DHT22;34369;51.174;6.738;2023-01-25T11:08:23;1.30;66.60
48589;DHT22;34369;51.174;6.738;2023-01-25T11:10:58;1.30;66.90
48589;DHT22;34369;51.174;6.738;2023-01-25T11:13:32;1.30;66.60
48589;DHT22;34369;51.174;6.738;2023-01-25T11:16:21;1.40;66.60
48589;DHT22;34369;51.174;6.738;2023-01-25T11:19:25;1.40;66.60
48589;DHT22;34369;51.174;6.738;2023-01-25T11:22:01;1.40;66.50
48589;DHT22;34369;51.174;6.738;2023-01-25T11:24:36;1.40;66.40
48589;DHT22;34369;51.174;6.738;2023-01-25T11:27:17;1.40;66.40
48589;DHT22;34369;51.174;6.738;2023-01-25T11:30:08;1.40;66.50
48589;DHT22;34369;51.174;6.738;2023-01-25T11:32:42;1.40;66.50
48589;DHT22;34369;51.174;6.738;2023-01-25T11:35:17;1.40;66.40
48589;DHT22;34369;51.174;6.738;2023-01-25T11:38:06;1.40;66.50
48589;DHT22;34369;51.174;6.738;2023-01-25T11:40:47;1.40;66.60
48589;DHT22;34369;51.174;6.738;2023-01-25T11:43:33;1.40;66.50
48589;DHT22;34369;51.174;6.738;2023-01-25T11:46:25;1.40;66.60
48589;DHT22;34369;51.174;6.738;2023-01-25T11:49:26;1.40;66.50
48589;DHT22;34369;51.174;6.738;2023-01-25T11:52:17;1.40;66.50
48589;DHT22;34369;51.174;6.738;2023-01-25T11:55:14;1.40;66.30
48589;DHT22;34369;51.174;6.738;2023-01-25T11:58:06;1.40;66.20
48589;DHT22;34369;51.174;6.738;2023-01-25T12:00:56;1.40;66.10
48589;DHT22;34369;51.174;6.738;2023-01-25T12:06:57;1.40;66.20
48589;DHT22;34369;51.174;6.738;2023-01-25T12:09:49;1.40;66.30
48589;DHT22;34369;51.174;6.738;2023-01-25T12:12:38;1.40;66.40
48589;DHT22;34369;51.174;6.738;2023-01-25T12:15:27;1.40;66.30
48589;DHT22;34369;51.174;6.738;2023-01-25T12:18:35;1.40;66.30
48589;DHT22;34369;51.174;6.738;2023-01-25T12:21:28;1.40;66.40
48589;DHT22;34369;51.174;6.738;2023-01-25T12:24:24;1.40;66.10
48589;DHT22;34369;51.174;6.738;2023-01-25T12:27:14;1.30;66.20
48589;DHT22;34369;51.174;6.738;2023-01-25T12:29:56;1.30;66.10
48589;DHT22;34369;51.174;6.738;2023-01-25T12:32:36;1.30;66.30
48589;DHT22;34369;51.174;6.738;2023-01-25T12:35:22;1.20;66.50
48589;DHT22;34369;51.174;6.738;2023-01-25T12:38:01;1.20;66.50
48589;DHT22;34369;51.174;6.738;2023-01-25T12:40:45;1.20;66.30
48589;DHT22;34369;51.174;6.738;2023-01-25T12:43:22;1.20;66.40
48589;DHT22;34369;51.174;6.738;2023-01-25T12:46:09;1.20;66.40
48589;DHT22;34369;51.174;6.738;2023-01-25T12:48:46;1.30;66.40
48589;DHT22;34369;51.174;6.738;2023-01-25T12:51:34;1.30;66.40
48589;DHT22;34369;51.174;6.738;2023-01-25T12:54:15;1.30;66.40
48589;DHT22;34369;51.174;6.738;2023-01-25T12:57:01;1.30;66.20
48589;DHT22;34369;51.174;6.738;2023-01-25T12:59:47;1.30;66.30
48589;DHT22;34369;51.174;6.738;2023-01-25T13:02:44;1.30;66.30
48589;DHT22;34369;51.174;6.738;2023-01-25T13:05:25;1.30;66.20
48589;DHT22;34369;51.174;6.738;2023-01-25T13:08:10;1.30;66.20
48589;DHT22;34369;51.174;6.738;2023-01-25T13:10:50;1.30;66.20
48589;DHT22;34369;51.174;6.738;2023-01-25T13:13:25;1.30;66.20
48589;DHT22;34369;51.174;6.738;2023-01-25T13:16:37;1.20;66.30
48589;DHT22;34369;51.174;6.738;2023-01-25T13:19:38;1.20;66.50
48589;DHT22;34369;51.174;6.738;2023-01-25T13:22:13;1.20;66.40
48589;DHT22;34369;51.174;6.738;2023-01-25T13:25:17;1.20;66.30
48589;DHT22;34369;51.174;6.738;2023-01-25T13:27:51;1.20;66.50
48589;DHT22;34369;51.174;6.738;2023-01-25T13:30:32;1.20;66.40
48589;DHT22;34369;51.174;6.738;2023-01-25T13:33:06;1.20;66.40
48589;DHT22;34369;51.174;6.738;2023-01-25T13:35:40;1.20;66.30
48589;DHT22;34369;51.174;6.738;2023-01-25T13:38:29;1.20;66.50
48589;DHT22;34369;51.174;6.738;2023-01-25T13:41:11;1.20;66.70
48589;DHT22;34369;51.174;6.738;2023-01-25T13:43:48;1.20;66.50
48589;DHT22;34369;51.174;6.738;2023-01-25T13:46:26;1.10;66.60
48589;DHT22;34369;51.174;6.738;2023-01-25T13:49:03;1.20;66.70
48589;DHT22;34369;51.174;6.738;2023-01-25T13:51:38;1.20;66.70
48589;DHT22;34369;51.174;6.738;2023-01-25T13:54:15;1.10;66.60
48589;DHT22;34369;51.174;6.738;2023-01-25T13:56:47;1.20;66.60
48589;DHT22;34369;51.174;6.738;2023-01-25T13:59:34;1.20;66.50
48589;DHT22;34369;51.174;6.738;2023-01-25T14:02:12;1.20;66.50
48589;DHT22;34369;51.174;6.738;2023-01-25T14:04:52;1.20;66.70
48589;DHT22;34369;51.174;6.738;2023-01-25T14:07:29;1.20;66.60
48589;DHT22;34369;51.174;6.738;2023-01-25T14:10:08;1.20;66.70
48589;DHT22;34369;51.174;6.738;2023-01-25T14:12:46;1.10;66.70
48589;DHT22;34369;51.174;6.738;2023-01-25T14:15:21;1.20;66.60
48589;DHT22;34369;51.174;6.738;2023-01-25T14:18:19;1.10;66.70
48589;DHT22;34369;51.174;6.738;2023-01-25T14:21:10;1.10;66.90
48589;DHT22;34369;51.174;6.738;2023-01-25T14:23:46;1.10;67.10
48589;DHT22;34369;51.174;6.738;2023-01-25T14:26:23;1.10;66.80
48589;DHT22;34369;51.174;6.738;2023-01-25T14:28:58;1.10;66.80
48589;DHT22;34369;51.174;6.738;2023-01-25T14:31:34;1.10;66.80
48589;DHT22;34369;51.174;6.738;2023-01-25T14:34:15;1.10;66.90
48589;DHT22;34369;51.174;6.738;2023-01-25T14:37:03;1.10;66.90
48589;DHT22;34369;51.174;6.738;2023-01-25T14:39:38;1.10;66.90
48589;DHT22;34369;51.174;6.738;2023-01-25T14:42:11;1.10;66.50
48589;DHT22;34369;51.174;6.738;2023-01-25T14:44:44;1.10;66.50
48589;DHT22;34369;51.174;6.738;2023-01-25T14:47:21;1.10;66.60
48589;DHT22;34369;51.174;6.738;2023-01-25T14:50:32;1.10;66.60
48589;DHT22;34369;51.174;6.738;2023-01-25T14:53:15;1.10;66.80
48589;DHT22;34369;51.174;6.738;2023-01-25T14:55:51;1.10;66.70
48589;DHT22;34369;51.174;6.738;2023-01-25T14:58:24;1.00;66.50
48589;DHT22;34369;51.174;6.738;2023-01-25T15:01:00;1.10;66.60
48589;DHT22;34369;51.174;6.738;2023-01-25T15:03:33;1.00;66.60
48589;DHT22;34369;51.174;6.738;2023-01-25T15:06:06;1.00;66.60
48589;DHT22;34369;51.174;6.738;2023-01-25T15:08:40;1.00;66.60
48589;DHT22;34369;51.174;6.738;2023-01-25T15:11:30;1.00;66.60
48589;DHT22;34369;51.174;6.738;2023-01-25T15:14:17;1.00;66.90
48589;DHT22;34369;51.174;6.738;2023-01-25T15:16:51;1.00;66.80
48589;DHT22;34369;51.174;6.738;2023-01-25T15:19:27;1.00;66.60
48589;DHT22;34369;51.174;6.738;2023-01-25T15:22:00;1.00;66.60
48589;DHT22;34369;51.174;6.738;2023-01-25T15:24:34;1.00;66.60
48589;DHT22;34369;51.174;6.738;2023-01-25T15:27:09;1.00;66.40
48589;DHT22;34369;51.174;6.738;2023-01-25T15:29:42;1.00;66.40
48589;DHT22;34369;51.174;6.738;2023-01-25T15:32:19;1.00;66.20
48589;DHT22;34369;51.174;6.738;2023-01-25T15:34:56;1.00;66.20
48589;DHT22;34369;51.174;6.738;2023-01-25T15:37:29;0.90;66.10
48589;DHT22;34369;51.174;6.738;2023-01-25T15:40:03;0.90;66.10
48589;DHT22;34369;51.174;6.738;2023-01-25T15:42:37;0.80;66.30
48589;DHT22;34369;51.174;6.738;2023-01-25T15:45:10;0.80;66.50
48589;DHT22;34369;51.174;6.738;2023-01-25T15:47:43;0.80;66.40
48589;DHT22;34369;51.174;6.738;2023-01-25T15:50:17;0.80;66.60
48589;DHT22;34369;51.174;6.738;2023-01-25T15:52:49;0.80;66.70
48589;DHT22;34369;51.174;6.738;2023-01-25T15:55:23;0.80;66.50
48589;DHT22;34369;51.174;6.738;2023-01-25T15:57:57;0.80;66.50
48589;DHT22;34369;51.174;6.738;2023-01-25T16:00:30;0.80;66.50
48589;DHT22;34369;51.174;6.738;2023-01-25T16:03:03;0.80;66.50
48589;DHT22;34369;51.174;6.738;2023-01-25T16:05:37;0.70;66.70
48589;DHT22;34369;51.174;6.738;2023-01-25T16:08:12;0.70;66.60
48589;DHT22;34369;51.174;6.738;2023-01-25T16:10:48;0.70;66.80
48589;DHT22;34369;51.174;6.738;2023-01-25T16:13:21;0.70;66.70
48589;DHT22;34369;51.174;6.738;2023-01-25T16:15:55;0.70;66.80
48589;DHT22;34369;51.174;6.738;2023-01-25T16:18:29;0.60;66.70
48589;DHT22;34369;51.174;6.738;2023-01-25T16:21:02;0.60;66.70
48589;DHT22;34369;51.174;6.738;2023-01-25T16:23:35;0.60;66.70
48589;DHT22;34369;51.174;6.738;2023-01-25T16:26:16;0.70;66.80
48589;DHT22;34369;51.174;6.738;2023-01-25T16:28:51;0.70;67.00
48589;DHT22;34369;51.174;6.738;2023-01-25T16:31:23;0.60;67.00
48589;DHT22;34369;51.174;6.738;2023-01-25T16:33:55;0.60;67.00
48589;DHT22;34369;51.174;6.738;2023-01-25T16:36:28;0.60;67.00
48589;DHT22;34369;51.174;6.738;2023-01-25T16:39:07;0.60;66.90
48589;DHT22;34369;51.174;6.738;2023-01-25T16:41:41;0.60;66.90
48589;DHT22;34369;51.174;6.738;2023-01-25T16:44:14;0.60;66.90
48589;DHT22;34369;51.174;6.738;2023-01-25T16:46:46;0.60;67.00